sensor_id;sensor_type;location;lat;lon;timestamp;temperature;humidity
47805;DHT22;33568;45.286;9.900;2023-05-29T00:01:37;23.50;87.10
47805;DHT22;33568;45.286;9.900;2023-05-29T00:04:04;23.50;87.20
47805;DHT22;33568;45.286;9.900;2023-05-29T00:06:30;23.50;87.30
47805;DHT22;33568;45.286;9.900;2023-05-29T00:08:57;23.50;87.20
47805;DHT22;33568;45.286;9.900;2023-05-29T00:11:23;23.50;87.30
47805;DHT22;33568;45.286;9.900;2023-05-29T00:13:50;23.50;87.40
47805;DHT22;33568;45.286;9.900;2023-05-29T00:16:16;23.50;87.50
47805;DHT22;33568;45.286;9.900;2023-05-29T00:18:44;23.50;87.50
47805;DHT22;33568;45.286;9.900;2023-05-29T00:21:13;23.50;87.60
47805;DHT22;33568;45.286;9.900;2023-05-29T00:23:40;23.50;87.80
47805;DHT22;33568;45.286;9.900;2023-05-29T00:26:07;23.50;87.90
47805;DHT22;33568;45.286;9.900;2023-05-29T00:28:35;23.50;87.90
47805;DHT22;33568;45.286;9.900;2023-05-29T00:31:02;23.50;87.90
47805;DHT22;33568;45.286;9.900;2023-05-29T00:33:29;23.40;88.10
47805;DHT22;33568;45.286;9.900;2023-05-29T00:35:55;23.40;88.40
47805;DHT22;33568;45.286;9.900;2023-05-29T00:38:22;23.40;89.10
47805;DHT22;33568;45.286;9.900;2023-05-29T00:40:49;23.40;88.50
47805;DHT22;33568;45.286;9.900;2023-05-29T00:43:15;23.40;88.50
47805;DHT22;33568;45.286;9.900;2023-05-29T00:45:42;23.30;88.70
47805;DHT22;33568;45.286;9.900;2023-05-29T00:48:08;23.40;88.90
47805;DHT22;33568;45.286;9.900;2023-05-29T00:50:35;23.40;88.90
47805;DHT22;33568;45.286;9.900;2023-05-29T00:53:02;23.40;89.30
47805;DHT22;33568;45.286;9.900;2023-05-29T00:55:31;23.40;89.40
47805;DHT22;33568;45.286;9.900;2023-05-29T00:57:57;23.40;89.20
47805;DHT22;33568;45.286;9.900;2023-05-29T01:00:24;23.40;89.20
47805;DHT22;33568;45.286;9.900;2023-05-29T01:02:51;23.40;89.20
47805;DHT22;33568;45.286;9.900;2023-05-29T01:05:19;23.30;89.50
47805;DHT22;33568;45.286;9.900;2023-05-29T01:07:45;23.30;89.60
47805;DHT22;33568;45.286;9.900;2023-05-29T01:10:13;23.30;89.70
47805;DHT22;33568;45.286;9.900;2023-05-29T01:12:54;23.20;89.80
47805;DHT22;33568;45.286;9.900;2023-05-29T01:15:37;23.20;90.00
47805;DHT22;33568;45.286;9.900;2023-05-29T01:18:22;23.20;90.00
47805;DHT22;33568;45.286;9.900;2023-05-29T01:26:37;23.20;90.30
47805;DHT22;33568;45.286;9.900;2023-05-29T01:29:10;23.20;90.20
47805;DHT22;33568;45.286;9.900;2023-05-29T01:31:39;23.10;90.20
47805;DHT22;33568;45.286;9.900;2023-05-29T01:34:08;23.10;90.50
47805;DHT22;33568;45.286;9.900;2023-05-29T01:36:34;23.10;90.30
47805;DHT22;33568;45.286;9.900;2023-05-29T01:39:03;23.10;90.40
47805;DHT22;33568;45.286;9.900;2023-05-29T01:41:33;23.00;90.50
47805;DHT22;33568;45.286;9.900;2023-05-29T01:44:02;23.00;90.70
47805;DHT22;33568;45.286;9.900;2023-05-29T01:46:29;22.90;90.80
47805;DHT22;33568;45.286;9.900;2023-05-29T01:48:56;22.90;91.00
47805;DHT22;33568;45.286;9.900;2023-05-29T01:51:23;22.80;91.10
47805;DHT22;33568;45.286;9.900;2023-05-29T01:53:49;22.70;91.20
47805;DHT22;33568;45.286;9.900;2023-05-29T01:56:16;22.70;91.30
47805;DHT22;33568;45.286;9.900;2023-05-29T01:58:43;22.60;91.40
47805;DHT22;33568;45.286;9.900;2023-05-29T02:01:10;22.60;91.50
47805;DHT22;33568;45.286;9.900;2023-05-29T02:03:37;22.60;91.60
47805;DHT22;33568;45.286;9.900;2023-05-29T02:06:03;22.50;91.70
47805;DHT22;33568;45.286;9.900;2023-05-29T02:08:30;22.50;91.80
47805;DHT22;33568;45.286;9.900;2023-05-29T02:10:56;22.50;91.90
47805;DHT22;33568;45.286;9.900;2023-05-29T02:13:23;22.50;92.00
47805;DHT22;33568;45.286;9.900;2023-05-29T02:15:49;22.50;92.00
47805;DHT22;33568;45.286;9.900;2023-05-29T02:18:17;22.50;92.00
47805;DHT22;33568;45.286;9.900;2023-05-29T02:20:45;22.40;92.10
47805;DHT22;33568;45.286;9.900;2023-05-29T02:23:21;22.40;92.20
47805;DHT22;33568;45.286;9.900;2023-05-29T02:25:47;22.40;92.30
47805;DHT22;33568;45.286;9.900;2023-05-29T02:28:14;22.40;92.50
47805;DHT22;33568;45.286;9.900;2023-05-29T02:30:40;22.40;92.50
47805;DHT22;33568;45.286;9.900;2023-05-29T02:33:09;22.30;92.60
47805;DHT22;33568;45.286;9.900;2023-05-29T02:35:35;22.40;92.60
47805;DHT22;33568;45.286;9.900;2023-05-29T02:38:04;22.30;92.60
47805;DHT22;33568;45.286;9.900;2023-05-29T02:40:30;22.30;92.60
47805;DHT22;33568;45.286;9.900;2023-05-29T02:42:58;22.30;92.80
47805;DHT22;33568;45.286;9.900;2023-05-29T02:45:24;22.30;92.90
47805;DHT22;33568;45.286;9.900;2023-05-29T02:47:51;22.20;93.00
47805;DHT22;33568;45.286;9.900;2023-05-29T02:50:17;22.20;93.00
47805;DHT22;33568;45.286;9.900;2023-05-29T02:52:44;22.20;93.20
47805;DHT22;33568;45.286;9.900;2023-05-29T02:55:10;22.10;93.20
47805;DHT22;33568;45.286;9.900;2023-05-29T02:57:37;22.10;93.40
47805;DHT22;33568;45.286;9.900;2023-05-29T03:00:04;22.00;93.50
47805;DHT22;33568;45.286;9.900;2023-05-29T03:02:32;22.00;93.60
47805;DHT22;33568;45.286;9.900;2023-05-29T03:04:59;21.90;93.70
47805;DHT22;33568;45.286;9.900;2023-05-29T03:07:26;21.90;93.80
47805;DHT22;33568;45.286;9.900;2023-05-29T03:09:55;21.90;93.90
47805;DHT22;33568;45.286;9.900;2023-05-29T03:12:23;21.80;94.00
47805;DHT22;33568;45.286;9.900;2023-05-29T03:14:49;21.80;94.10
47805;DHT22;33568;45.286;9.900;2023-05-29T03:17:16;21.70;94.10
47805;DHT22;33568;45.286;9.900;2023-05-29T03:19:43;21.70;94.20
47805;DHT22;33568;45.286;9.900;2023-05-29T03:22:10;21.70;94.30
47805;DHT22;33568;45.286;9.900;2023-05-29T03:24:38;21.70;94.40
47805;DHT22;33568;45.286;9.900;2023-05-29T03:27:05;21.70;94.50
47805;DHT22;33568;45.286;9.900;2023-05-29T03:29:32;21.60;94.90
47805;DHT22;33568;45.286;9.900;2023-05-29T03:32:01;21.70;94.70
47805;DHT22;33568;45.286;9.900;2023-05-29T03:34:31;21.60;94.70
47805;DHT22;33568;45.286;9.900;2023-05-29T03:37:00;21.60;94.70
47805;DHT22;33568;45.286;9.900;2023-05-29T03:39:27;21.60;94.70
47805;DHT22;33568;45.286;9.900;2023-05-29T03:41:54;21.60;94.80
47805;DHT22;33568;45.286;9.900;2023-05-29T03:44:21;21.60;94.80
47805;DHT22;33568;45.286;9.900;2023-05-29T03:46:48;21.60;94.80
47805;DHT22;33568;45.286;9.900;2023-05-29T03:49:15;21.60;94.70
47805;DHT22;33568;45.286;9.900;2023-05-29T03:51:43;21.60;94.70
47805;DHT22;33568;45.286;9.900;2023-05-29T03:54:09;21.60;94.70
47805;DHT22;33568;45.286;9.900;2023-05-29T03:56:37;21.60;94.70
47805;DHT22;33568;45.286;9.900;2023-05-29T03:59:04;21.50;94.70
47805;DHT22;33568;45.286;9.900;2023-05-29T04:01:31;21.50;94.80
47805;DHT22;33568;45.286;9.900;2023-05-29T04:03:58;21.50;94.80
47805;DHT22;33568;45.286;9.900;2023-05-29T04:06:24;21.50;94.70
47805;DHT22;33568;45.286;9.900;2023-05-29T04:08:51;21.50;94.70
47805;DHT22;33568;45.286;9.900;2023-05-29T04:11:18;21.50;94.80
47805;DHT22;33568;45.286;9.900;2023-05-29T04:13:47;21.50;94.80
47805;DHT22;33568;45.286;9.900;2023-05-29T04:16:14;21.40;94.80
47805;DHT22;33568;45.286;9.900;2023-05-29T04:18:42;21.40;94.80
47805;DHT22;33568;45.286;9.900;2023-05-29T04:21:08;21.40;94.90
47805;DHT22;33568;45.286;9.900;2023-05-29T04:23:36;21.40;94.90
47805;DHT22;33568;45.286;9.900;2023-05-29T04:26:03;21.40;94.90
47805;DHT22;33568;45.286;9.900;2023-05-29T04:28:32;21.40;94.80
47805;DHT22;33568;45.286;9.900;2023-05-29T04:30:58;21.40;94.80
47805;DHT22;33568;45.286;9.900;2023-05-29T04:33:25;21.40;94.60
47805;DHT22;33568;45.286;9.900;2023-05-29T04:35:52;21.40;94.50
47805;DHT22;33568;45.286;9.900;2023-05-29T04:38:20;21.40;94.30
47805;DHT22;33568;45.286;9.900;2023-05-29T04:40:53;21.50;94.20
47805;DHT22;33568;45.286;9.900;2023-05-29T04:43:24;21.50;94.00
47805;DHT22;33568;45.286;9.900;2023-05-29T04:46:01;21.60;93.80
47805;DHT22;33568;45.286;9.900;2023-05-29T04:48:29;21.60;93.60
47805;DHT22;33568;45.286;9.900;2023-05-29T04:50:56;21.70;93.50
47805;DHT22;33568;45.286;9.900;2023-05-29T04:53:24;21.70;93.30
47805;DHT22;33568;45.286;9.900;2023-05-29T04:55:50;21.80;93.20
47805;DHT22;33568;45.286;9.900;2023-05-29T04:58:17;21.90;93.00
47805;DHT22;33568;45.286;9.900;2023-05-29T05:00:43;22.00;92.80
47805;DHT22;33568;45.286;9.900;2023-05-29T05:03:10;22.00;92.60
47805;DHT22;33568;45.286;9.900;2023-05-29T05:05:37;22.00;92.50
47805;DHT22;33568;45.286;9.900;2023-05-29T05:08:05;22.10;92.40
47805;DHT22;33568;45.286;9.900;2023-05-29T05:10:32;22.20;92.30
47805;DHT22;33568;45.286;9.900;2023-05-29T05:12:59;22.20;92.10
47805;DHT22;33568;45.286;9.900;2023-05-29T05:15:31;22.20;91.90
47805;DHT22;33568;45.286;9.900;2023-05-29T05:17:57;22.30;91.70
47805;DHT22;33568;45.286;9.900;2023-05-29T05:20:24;22.40;91.50
47805;DHT22;33568;45.286;9.900;2023-05-29T05:22:58;22.50;91.40
47805;DHT22;33568;45.286;9.900;2023-05-29T05:25:26;22.60;91.20
47805;DHT22;33568;45.286;9.900;2023-05-29T05:27:53;22.70;90.90
47805;DHT22;33568;45.286;9.900;2023-05-29T05:30:21;22.80;90.70
47805;DHT22;33568;45.286;9.900;2023-05-29T05:32:48;22.80;90.40
47805;DHT22;33568;45.286;9.900;2023-05-29T05:35:15;22.80;90.20
47805;DHT22;33568;45.286;9.900;2023-05-29T05:37:43;22.80;90.00
47805;DHT22;33568;45.286;9.900;2023-05-29T05:40:11;22.90;89.70
47805;DHT22;33568;45.286;9.900;2023-05-29T05:42:48;23.10;89.40
47805;DHT22;33568;45.286;9.900;2023-05-29T05:45:16;23.20;88.80
47805;DHT22;33568;45.286;9.900;2023-05-29T05:47:43;23.30;88.40
47805;DHT22;33568;45.286;9.900;2023-05-29T05:50:10;23.40;87.80
47805;DHT22;33568;45.286;9.900;2023-05-29T05:52:37;23.60;87.20
47805;DHT22;33568;45.286;9.900;2023-05-29T05:55:04;23.60;86.80
47805;DHT22;33568;45.286;9.900;2023-05-29T05:57:30;23.70;86.40
47805;DHT22;33568;45.286;9.900;2023-05-29T06:00:05;23.70;85.70
47805;DHT22;33568;45.286;9.900;2023-05-29T06:02:42;23.70;85.40
47805;DHT22;33568;45.286;9.900;2023-05-29T06:05:14;23.70;85.50
47805;DHT22;33568;45.286;9.900;2023-05-29T06:07:42;23.80;84.80
47805;DHT22;33568;45.286;9.900;2023-05-29T06:10:09;23.90;84.40
47805;DHT22;33568;45.286;9.900;2023-05-29T06:12:36;23.90;83.90
47805;DHT22;33568;45.286;9.900;2023-05-29T06:15:13;23.90;83.60
47805;DHT22;33568;45.286;9.900;2023-05-29T06:17:40;23.80;83.70
47805;DHT22;33568;45.286;9.900;2023-05-29T06:20:08;23.90;83.90
47805;DHT22;33568;45.286;9.900;2023-05-29T06:22:38;24.00;83.40
47805;DHT22;33568;45.286;9.900;2023-05-29T06:25:05;23.90;82.80
47805;DHT22;33568;45.286;9.900;2023-05-29T06:27:32;23.80;82.60
47805;DHT22;33568;45.286;9.900;2023-05-29T06:29:59;23.90;82.40
47805;DHT22;33568;45.286;9.900;2023-05-29T06:32:26;23.90;81.70
47805;DHT22;33568;45.286;9.900;2023-05-29T06:34:56;24.00;80.90
47805;DHT22;33568;45.286;9.900;2023-05-29T06:37:23;24.20;80.20
47805;DHT22;33568;45.286;9.900;2023-05-29T06:39:49;24.40;79.50
47805;DHT22;33568;45.286;9.900;2023-05-29T06:42:16;24.60;79.40
47805;DHT22;33568;45.286;9.900;2023-05-29T06:44:43;24.80;78.70
47805;DHT22;33568;45.286;9.900;2023-05-29T06:47:10;24.80;77.90
47805;DHT22;33568;45.286;9.900;2023-05-29T06:49:37;25.00;77.00
47805;DHT22;33568;45.286;9.900;2023-05-29T06:52:03;25.10;76.10
47805;DHT22;33568;45.286;9.900;2023-05-29T06:54:59;25.20;75.50
47805;DHT22;33568;45.286;9.900;2023-05-29T06:57:27;25.50;75.40
47805;DHT22;33568;45.286;9.900;2023-05-29T06:59:54;25.60;75.30
47805;DHT22;33568;45.286;9.900;2023-05-29T07:02:20;25.70;75.40
47805;DHT22;33568;45.286;9.900;2023-05-29T07:04:51;25.80;75.60
47805;DHT22;33568;45.286;9.900;2023-05-29T07:07:18;25.90;75.50
47805;DHT22;33568;45.286;9.900;2023-05-29T07:09:44;25.80;75.10
47805;DHT22;33568;45.286;9.900;2023-05-29T07:12:12;25.90;75.30
47805;DHT22;33568;45.286;9.900;2023-05-29T07:14:39;25.90;75.40
47805;DHT22;33568;45.286;9.900;2023-05-29T07:17:07;25.90;75.10
47805;DHT22;33568;45.286;9.900;2023-05-29T07:19:33;25.90;75.00
47805;DHT22;33568;45.286;9.900;2023-05-29T07:22:01;25.80;75.00
47805;DHT22;33568;45.286;9.900;2023-05-29T07:24:28;25.90;74.90
47805;DHT22;33568;45.286;9.900;2023-05-29T07:26:56;26.00;74.70
47805;DHT22;33568;45.286;9.900;2023-05-29T07:29:23;26.10;74.30
47805;DHT22;33568;45.286;9.900;2023-05-29T07:31:51;26.30;73.90
47805;DHT22;33568;45.286;9.900;2023-05-29T07:34:19;26.40;73.30
47805;DHT22;33568;45.286;9.900;2023-05-29T07:37:01;26.60;73.00
47805;DHT22;33568;45.286;9.900;2023-05-29T07:39:30;26.80;71.70
47805;DHT22;33568;45.286;9.900;2023-05-29T07:42:01;26.90;72.10
47805;DHT22;33568;45.286;9.900;2023-05-29T07:44:27;27.00;71.50
47805;DHT22;33568;45.286;9.900;2023-05-29T07:46:55;27.20;70.50
47805;DHT22;33568;45.286;9.900;2023-05-29T07:49:33;27.10;69.60
47805;DHT22;33568;45.286;9.900;2023-05-29T07:51:59;27.10;69.20
47805;DHT22;33568;45.286;9.900;2023-05-29T07:54:28;27.30;68.50
47805;DHT22;33568;45.286;9.900;2023-05-29T07:56:55;27.30;67.30
47805;DHT22;33568;45.286;9.900;2023-05-29T07:59:22;27.00;66.80
47805;DHT22;33568;45.286;9.900;2023-05-29T08:01:49;26.80;67.30
47805;DHT22;33568;45.286;9.900;2023-05-29T08:04:36;27.00;68.00
47805;DHT22;33568;45.286;9.900;2023-05-29T08:07:03;27.10;67.50
47805;DHT22;33568;45.286;9.900;2023-05-29T08:09:30;27.20;66.60
47805;DHT22;33568;45.286;9.900;2023-05-29T08:11:57;27.50;66.50
47805;DHT22;33568;45.286;9.900;2023-05-29T08:14:23;27.50;66.10
47805;DHT22;33568;45.286;9.900;2023-05-29T08:16:50;27.70;65.80
47805;DHT22;33568;45.286;9.900;2023-05-29T08:19:16;27.80;64.80
47805;DHT22;33568;45.286;9.900;2023-05-29T08:21:43;27.80;64.50
47805;DHT22;33568;45.286;9.900;2023-05-29T08:24:09;27.80;64.50
47805;DHT22;33568;45.286;9.900;2023-05-29T08:26:36;27.90;64.20
47805;DHT22;33568;45.286;9.900;2023-05-29T08:29:02;27.90;63.80
47805;DHT22;33568;45.286;9.900;2023-05-29T08:31:30;27.90;63.80
47805;DHT22;33568;45.286;9.900;2023-05-29T08:33:56;28.10;63.70
47805;DHT22;33568;45.286;9.900;2023-05-29T08:36:25;28.20;63.10
47805;DHT22;33568;45.286;9.900;2023-05-29T08:38:52;28.40;63.00
47805;DHT22;33568;45.286;9.900;2023-05-29T08:41:32;28.60;62.70
47805;DHT22;33568;45.286;9.900;2023-05-29T08:44:03;28.50;60.90
47805;DHT22;33568;45.286;9.900;2023-05-29T08:46:32;28.50;61.20
47805;DHT22;33568;45.286;9.900;2023-05-29T08:49:01;28.50;61.20
47805;DHT22;33568;45.286;9.900;2023-05-29T08:51:37;28.60;61.40
47805;DHT22;33568;45.286;9.900;2023-05-29T08:54:04;28.60;59.70
47805;DHT22;33568;45.286;9.900;2023-05-29T08:56:31;28.60;60.30
47805;DHT22;33568;45.286;9.900;2023-05-29T08:58:57;28.90;60.60
47805;DHT22;33568;45.286;9.900;2023-05-29T09:01:25;29.10;61.00
47805;DHT22;33568;45.286;9.900;2023-05-29T09:03:51;29.10;60.40
47805;DHT22;33568;45.286;9.900;2023-05-29T09:06:18;29.10;60.30
47805;DHT22;33568;45.286;9.900;2023-05-29T09:08:45;29.20;59.90
47805;DHT22;33568;45.286;9.900;2023-05-29T09:11:12;29.20;59.60
47805;DHT22;33568;45.286;9.900;2023-05-29T09:13:39;29.10;59.50
47805;DHT22;33568;45.286;9.900;2023-05-29T09:16:06;29.00;59.50
47805;DHT22;33568;45.286;9.900;2023-05-29T09:18:33;28.80;59.50
47805;DHT22;33568;45.286;9.900;2023-05-29T09:20:59;28.80;59.90
47805;DHT22;33568;45.286;9.900;2023-05-29T09:23:32;28.80;60.10
47805;DHT22;33568;45.286;9.900;2023-05-29T09:26:02;28.70;59.90
47805;DHT22;33568;45.286;9.900;2023-05-29T09:28:30;28.80;60.10
47805;DHT22;33568;45.286;9.900;2023-05-29T09:30:57;29.10;60.00
47805;DHT22;33568;45.286;9.900;2023-05-29T09:33:25;29.40;59.50
47805;DHT22;33568;45.286;9.900;2023-05-29T09:35:52;29.40;58.70
47805;DHT22;33568;45.286;9.900;2023-05-29T09:38:19;29.40;58.50
47805;DHT22;33568;45.286;9.900;2023-05-29T09:40:46;29.30;58.10
47805;DHT22;33568;45.286;9.900;2023-05-29T09:43:17;29.40;58.30
47805;DHT22;33568;45.286;9.900;2023-05-29T09:45:46;29.40;58.40
47805;DHT22;33568;45.286;9.900;2023-05-29T09:48:18;29.40;58.60
47805;DHT22;33568;45.286;9.900;2023-05-29T09:50:45;29.40;58.60
47805;DHT22;33568;45.286;9.900;2023-05-29T09:53:18;29.30;59.60
47805;DHT22;33568;45.286;9.900;2023-05-29T09:55:49;29.10;59.80
47805;DHT22;33568;45.286;9.900;2023-05-29T09:58:20;29.00;59.50
47805;DHT22;33568;45.286;9.900;2023-05-29T10:00:47;28.90;59.70
47805;DHT22;33568;45.286;9.900;2023-05-29T10:03:15;28.90;59.90
47805;DHT22;33568;45.286;9.900;2023-05-29T10:05:44;28.70;59.60
47805;DHT22;33568;45.286;9.900;2023-05-29T10:08:14;28.70;59.80
47805;DHT22;33568;45.286;9.900;2023-05-29T10:10:43;28.70;59.90
47805;DHT22;33568;45.286;9.900;2023-05-29T10:13:14;28.90;60.40
47805;DHT22;33568;45.286;9.900;2023-05-29T10:15:45;29.10;59.40
47805;DHT22;33568;45.286;9.900;2023-05-29T10:18:37;28.90;59.30
47805;DHT22;33568;45.286;9.900;2023-05-29T10:21:07;28.70;59.30
47805;DHT22;33568;45.286;9.900;2023-05-29T10:23:35;28.80;59.80
47805;DHT22;33568;45.286;9.900;2023-05-29T10:26:10;29.00;59.40
47805;DHT22;33568;45.286;9.900;2023-05-29T10:28:41;29.10;59.10
47805;DHT22;33568;45.286;9.900;2023-05-29T10:31:10;29.30;59.20
47805;DHT22;33568;45.286;9.900;2023-05-29T10:36:22;29.80;57.30
47805;DHT22;33568;45.286;9.900;2023-05-29T10:38:52;29.70;57.30
47805;DHT22;33568;45.286;9.900;2023-05-29T10:43:55;29.60;57.60
47805;DHT22;33568;45.286;9.900;2023-05-29T10:49:17;29.80;56.10
47805;DHT22;33568;45.286;9.900;2023-05-29T10:51:44;29.90;56.80
47805;DHT22;33568;45.286;9.900;2023-05-29T10:54:11;29.80;56.60
47805;DHT22;33568;45.286;9.900;2023-05-29T10:56:38;29.70;56.50
47805;DHT22;33568;45.286;9.900;2023-05-29T10:59:04;29.80;56.60
47805;DHT22;33568;45.286;9.900;2023-05-29T11:01:31;29.60;56.40
47805;DHT22;33568;45.286;9.900;2023-05-29T11:04:30;29.60;56.50
47805;DHT22;33568;45.286;9.900;2023-05-29T11:06:59;29.30;56.10
47805;DHT22;33568;45.286;9.900;2023-05-29T11:09:37;29.30;57.40
47805;DHT22;33568;45.286;9.900;2023-05-29T11:12:16;29.30;58.30
47805;DHT22;33568;45.286;9.900;2023-05-29T11:15:09;29.60;57.60
47805;DHT22;33568;45.286;9.900;2023-05-29T11:20:08;30.10;56.90
47805;DHT22;33568;45.286;9.900;2023-05-29T11:25:13;30.20;56.90
47805;DHT22;33568;45.286;9.900;2023-05-29T11:27:43;30.40;57.10
47805;DHT22;33568;45.286;9.900;2023-05-29T11:30:10;30.70;57.50
47805;DHT22;33568;45.286;9.900;2023-05-29T11:32:38;30.90;56.70
47805;DHT22;33568;45.286;9.900;2023-05-29T11:35:10;31.10;55.70
47805;DHT22;33568;45.286;9.900;2023-05-29T11:37:41;31.30;54.90
47805;DHT22;33568;45.286;9.900;2023-05-29T11:40:12;31.00;54.20
47805;DHT22;33568;45.286;9.900;2023-05-29T11:42:43;30.40;54.70
47805;DHT22;33568;45.286;9.900;2023-05-29T11:45:14;30.10;55.00
47805;DHT22;33568;45.286;9.900;2023-05-29T11:48:01;29.80;55.10
47805;DHT22;33568;45.286;9.900;2023-05-29T11:50:29;29.60;55.00
47805;DHT22;33568;45.286;9.900;2023-05-29T11:52:57;29.40;55.30
47805;DHT22;33568;45.286;9.900;2023-05-29T11:55:25;29.60;55.60
47805;DHT22;33568;45.286;9.900;2023-05-29T11:57:57;30.00;55.70
47805;DHT22;33568;45.286;9.900;2023-05-29T12:00:25;30.40;55.00
47805;DHT22;33568;45.286;9.900;2023-05-29T12:02:52;30.70;54.30
47805;DHT22;33568;45.286;9.900;2023-05-29T12:05:18;30.80;53.80
47805;DHT22;33568;45.286;9.900;2023-05-29T12:07:53;30.80;54.00
47805;DHT22;33568;45.286;9.900;2023-05-29T12:10:21;31.00;53.60
47805;DHT22;33568;45.286;9.900;2023-05-29T12:12:52;31.10;53.30
47805;DHT22;33568;45.286;9.900;2023-05-29T12:15:19;31.40;53.80
47805;DHT22;33568;45.286;9.900;2023-05-29T12:17:49;31.70;54.30
47805;DHT22;33568;45.286;9.900;2023-05-29T12:20:16;31.90;53.70
47805;DHT22;33568;45.286;9.900;2023-05-29T12:22:44;31.90;52.50
47805;DHT22;33568;45.286;9.900;2023-05-29T12:25:13;31.40;51.90
47805;DHT22;33568;45.286;9.900;2023-05-29T12:27:44;31.30;52.50
47805;DHT22;33568;45.286;9.900;2023-05-29T12:32:42;31.10;52.70
47805;DHT22;33568;45.286;9.900;2023-05-29T12:37:55;31.00;52.70
47805;DHT22;33568;45.286;9.900;2023-05-29T12:40:23;31.00;52.50
47805;DHT22;33568;45.286;9.900;2023-05-29T12:42:57;31.10;52.50
47805;DHT22;33568;45.286;9.900;2023-05-29T12:45:26;31.00;52.30
47805;DHT22;33568;45.286;9.900;2023-05-29T12:47:58;30.80;52.80
47805;DHT22;33568;45.286;9.900;2023-05-29T12:50:27;30.80;53.50
47805;DHT22;33568;45.286;9.900;2023-05-29T12:55:28;30.60;53.20
47805;DHT22;33568;45.286;9.900;2023-05-29T12:57:55;30.70;53.10
47805;DHT22;33568;45.286;9.900;2023-05-29T13:00:22;31.00;52.90
47805;DHT22;33568;45.286;9.900;2023-05-29T13:02:49;31.30;52.50
47805;DHT22;33568;45.286;9.900;2023-05-29T13:05:16;31.50;51.90
47805;DHT22;33568;45.286;9.900;2023-05-29T13:07:46;31.80;51.80
47805;DHT22;33568;45.286;9.900;2023-05-29T13:10:13;32.00;51.50
47805;DHT22;33568;45.286;9.900;2023-05-29T13:12:41;32.00;50.90
47805;DHT22;33568;45.286;9.900;2023-05-29T13:15:09;31.80;50.70
47805;DHT22;33568;45.286;9.900;2023-05-29T13:17:36;31.70;50.80
47805;DHT22;33568;45.286;9.900;2023-05-29T13:20:02;31.80;51.00
47805;DHT22;33568;45.286;9.900;2023-05-29T13:22:33;31.80;50.70
47805;DHT22;33568;45.286;9.900;2023-05-29T13:25:01;31.80;51.00
47805;DHT22;33568;45.286;9.900;2023-05-29T13:27:27;31.80;50.60
47805;DHT22;33568;45.286;9.900;2023-05-29T13:29:54;31.70;50.60
47805;DHT22;33568;45.286;9.900;2023-05-29T13:32:21;31.70;50.40
47805;DHT22;33568;45.286;9.900;2023-05-29T13:34:47;31.80;50.00
47805;DHT22;33568;45.286;9.900;2023-05-29T13:37:14;32.00;50.10
47805;DHT22;33568;45.286;9.900;2023-05-29T13:39:40;32.20;50.00
47805;DHT22;33568;45.286;9.900;2023-05-29T13:42:07;32.30;50.10
47805;DHT22;33568;45.286;9.900;2023-05-29T13:44:34;32.30;51.10
47805;DHT22;33568;45.286;9.900;2023-05-29T13:47:00;32.30;50.90
47805;DHT22;33568;45.286;9.900;2023-05-29T13:49:27;32.40;50.40
47805;DHT22;33568;45.286;9.900;2023-05-29T13:51:54;32.40;49.70
47805;DHT22;33568;45.286;9.900;2023-05-29T13:54:20;32.40;49.60
47805;DHT22;33568;45.286;9.900;2023-05-29T13:56:48;32.50;49.50
47805;DHT22;33568;45.286;9.900;2023-05-29T13:59:15;32.50;49.40
47805;DHT22;33568;45.286;9.900;2023-05-29T14:01:41;32.40;48.80
47805;DHT22;33568;45.286;9.900;2023-05-29T14:04:08;32.40;48.90
47805;DHT22;33568;45.286;9.900;2023-05-29T14:06:34;32.50;49.10
47805;DHT22;33568;45.286;9.900;2023-05-29T14:09:03;32.50;49.60
47805;DHT22;33568;45.286;9.900;2023-05-29T14:11:30;32.50;49.50
47805;DHT22;33568;45.286;9.900;2023-05-29T14:13:56;32.50;49.30
47805;DHT22;33568;45.286;9.900;2023-05-29T14:16:23;32.50;49.50
47805;DHT22;33568;45.286;9.900;2023-05-29T14:18:49;32.70;49.20
47805;DHT22;33568;45.286;9.900;2023-05-29T14:21:16;32.70;49.60
47805;DHT22;33568;45.286;9.900;2023-05-29T14:23:42;32.50;49.70
47805;DHT22;33568;45.286;9.900;2023-05-29T14:26:09;32.30;49.80
47805;DHT22;33568;45.286;9.900;2023-05-29T14:28:35;32.30;50.30
47805;DHT22;33568;45.286;9.900;2023-05-29T14:33:29;32.40;50.60
47805;DHT22;33568;45.286;9.900;2023-05-29T14:35:56;32.40;50.30
47805;DHT22;33568;45.286;9.900;2023-05-29T14:38:23;32.40;49.70
47805;DHT22;33568;45.286;9.900;2023-05-29T14:40:50;32.30;49.90
47805;DHT22;33568;45.286;9.900;2023-05-29T14:43:18;32.30;49.80
47805;DHT22;33568;45.286;9.900;2023-05-29T14:45:44;32.30;50.00
47805;DHT22;33568;45.286;9.900;2023-05-29T14:48:10;32.40;49.90
47805;DHT22;33568;45.286;9.900;2023-05-29T14:50:37;32.30;50.10
47805;DHT22;33568;45.286;9.900;2023-05-29T14:53:04;32.40;49.90
47805;DHT22;33568;45.286;9.900;2023-05-29T14:55:30;32.50;49.60
47805;DHT22;33568;45.286;9.900;2023-05-29T14:58:04;32.50;49.40
47805;DHT22;33568;45.286;9.900;2023-05-29T15:00:31;32.40;48.90
47805;DHT22;33568;45.286;9.900;2023-05-29T15:02:58;32.50;48.80
47805;DHT22;33568;45.286;9.900;2023-05-29T15:05:26;32.40;48.70
47805;DHT22;33568;45.286;9.900;2023-05-29T15:07:52;32.30;48.30
47805;DHT22;33568;45.286;9.900;2023-05-29T15:10:21;32.30;48.20
47805;DHT22;33568;45.286;9.900;2023-05-29T15:12:47;32.30;48.30
47805;DHT22;33568;45.286;9.900;2023-05-29T15:15:14;32.30;48.40
47805;DHT22;33568;45.286;9.900;2023-05-29T15:17:40;32.30;48.70
47805;DHT22;33568;45.286;9.900;2023-05-29T15:20:08;32.30;49.00
47805;DHT22;33568;45.286;9.900;2023-05-29T15:22:34;32.20;49.00
47805;DHT22;33568;45.286;9.900;2023-05-29T15:25:01;32.30;48.40
47805;DHT22;33568;45.286;9.900;2023-05-29T15:27:27;32.30;48.10
47805;DHT22;33568;45.286;9.900;2023-05-29T15:30:08;32.40;48.10
47805;DHT22;33568;45.286;9.900;2023-05-29T15:32:35;32.50;47.50
47805;DHT22;33568;45.286;9.900;2023-05-29T15:35:02;32.50;48.00
47805;DHT22;33568;45.286;9.900;2023-05-29T15:37:28;32.60;48.00
47805;DHT22;33568;45.286;9.900;2023-05-29T15:39:55;32.60;48.10
47805;DHT22;33568;45.286;9.900;2023-05-29T15:42:22;32.70;48.50
47805;DHT22;33568;45.286;9.900;2023-05-29T15:44:49;32.70;48.10
47805;DHT22;33568;45.286;9.900;2023-05-29T15:47:15;32.60;47.70
47805;DHT22;33568;45.286;9.900;2023-05-29T15:49:42;32.50;47.60
47805;DHT22;33568;45.286;9.900;2023-05-29T15:52:08;32.40;47.70
47805;DHT22;33568;45.286;9.900;2023-05-29T15:54:35;32.20;47.90
47805;DHT22;33568;45.286;9.900;2023-05-29T15:57:01;31.80;48.20
47805;DHT22;33568;45.286;9.900;2023-05-29T15:59:29;31.60;48.70
47805;DHT22;33568;45.286;9.900;2023-05-29T16:01:56;31.50;48.50
47805;DHT22;33568;45.286;9.900;2023-05-29T16:04:22;31.50;48.80
47805;DHT22;33568;45.286;9.900;2023-05-29T16:06:49;31.40;49.30